Aviation Digital Data Service (ADDS)

Output produced by METARs form (1701 UTC 17 October 2017)
found at http://aviationweather.gov/adds/metars/
 
METAR text: KCVC 171636Z AUTO 08010G14KT 10SM CLR 18/05 A3033 RMK AO2
Conditions at: KCVC (COVINGTON MUNI , GA, US) observed 1636 UTC 17 October 2017
Temperature: 18.0°C (64°F)
Dewpoint: 5.0°C (41°F) [RH = 42%]
Pressure (altimeter): 30.33 inches Hg (1027.2 mb)
Winds: from the E (80 degrees) at 12 MPH (10 knots; 5.2 m/s)
gusting to 16 MPH (14 knots; 7.3 m/s)
Visibility: 10 or more miles (16+ km)
Ceiling: at least 12,000 feet AGL
Clouds: sky clear below 12,000 feet AGL
Weather: automated observation with no human augmentation;
there may or may not be significant weather present at this time